Pagrindinis puslapis
METAR-TAF:

METAR-TAF

Oro uostai :

Bender Mahšahras, Iranas

platuma: 30-33-23N, ilguma: 049-09-07E, Aukštis: 2 m

Dabartinis oras

Ataskaita buvo paskelbta 27 minutes, ne 14:00 UTC
Vėjas 10 kt iš Pietų
Temperatūra 38°C
Drėgmė 51%
Slėgis 994 hPa
Matomumas: 6000 m

METAR: OIAM 181400Z 18010KT 6000 NSC 38/26 Q0994

Laikas: 18:57 (14:27 UTC)


TAF: trūkstamas

Orai ataskaitas ir orų prognozės (METAR, TAF).

turimą stotys yra geltonos ir raudonos taškus žemėlapyje.

Perkelti pele per norėdami pamatyti stoties vardą.

Tada spustelėkite, norėdami matyti oro stebėjimo ir prognozės.

Norėdami pakeisti žemėlapį: spustelėkite ant žalios mygtukų su juodo kryžiaus žemyn,; žalią mygtuką su brūkšneliu, jei norite nutolinti; arba žalių rodyklių gretimoms žemėlapius.


METAR-TAF: